sensor_id;sensor_type;location;lat;lon;timestamp;temperature;humidity
3300;DHT22;1662;49.310;8.134;2023-06-22T00:02:01;22.90;99.90
3300;DHT22;1662;49.310;8.134;2023-06-22T00:04:27;22.80;99.90
3300;DHT22;1662;49.310;8.134;2023-06-22T00:06:53;22.80;99.90
3300;DHT22;1662;49.310;8.134;2023-06-22T00:09:18;22.80;99.90
3300;DHT22;1662;49.310;8.134;2023-06-22T00:11:44;22.80;99.90
3300;DHT22;1662;49.310;8.134;2023-06-22T00:14:10;22.80;99.90
3300;DHT22;1662;49.310;8.134;2023-06-22T00:16:36;22.80;99.90
3300;DHT22;1662;49.310;8.134;2023-06-22T00:19:01;22.80;99.90
3300;DHT22;1662;49.310;8.134;2023-06-22T00:21:29;22.80;99.90
3300;DHT22;1662;49.310;8.134;2023-06-22T00:23:55;22.70;99.90
3300;DHT22;1662;49.310;8.134;2023-06-22T00:26:23;22.70;99.90
3300;DHT22;1662;49.310;8.134;2023-06-22T00:28:48;22.90;99.90
3300;DHT22;1662;49.310;8.134;2023-06-22T00:31:14;23.00;99.90
3300;DHT22;1662;49.310;8.134;2023-06-22T00:33:40;23.00;99.90
3300;DHT22;1662;49.310;8.134;2023-06-22T00:36:06;23.10;99.90
3300;DHT22;1662;49.310;8.134;2023-06-22T00:38:33;23.10;99.90
3300;DHT22;1662;49.310;8.134;2023-06-22T00:40:59;23.00;99.90
3300;DHT22;1662;49.310;8.134;2023-06-22T00:43:24;23.00;99.90
3300;DHT22;1662;49.310;8.134;2023-06-22T00:45:50;23.00;99.90
3300;DHT22;1662;49.310;8.134;2023-06-22T00:48:16;22.90;99.90
3300;DHT22;1662;49.310;8.134;2023-06-22T00:50:44;22.80;99.90
3300;DHT22;1662;49.310;8.134;2023-06-22T00:53:10;22.70;99.90
3300;DHT22;1662;49.310;8.134;2023-06-22T00:55:37;22.70;99.90
3300;DHT22;1662;49.310;8.134;2023-06-22T00:58:05;22.60;99.90
3300;DHT22;1662;49.310;8.134;2023-06-22T01:00:33;22.50;99.90
3300;DHT22;1662;49.310;8.134;2023-06-22T01:02:59;22.50;99.90
3300;DHT22;1662;49.310;8.134;2023-06-22T01:05:25;22.40;99.90
3300;DHT22;1662;49.310;8.134;2023-06-22T01:13:54;22.40;99.90
3300;DHT22;1662;49.310;8.134;2023-06-22T01:16:25;22.40;99.90
3300;DHT22;1662;49.310;8.134;2023-06-22T01:18:54;22.40;99.90
3300;DHT22;1662;49.310;8.134;2023-06-22T01:21:22;22.40;99.90
3300;DHT22;1662;49.310;8.134;2023-06-22T01:23:54;22.30;99.90
3300;DHT22;1662;49.310;8.134;2023-06-22T01:26:48;22.30;99.90
3300;DHT22;1662;49.310;8.134;2023-06-22T01:29:19;22.30;99.90
3300;DHT22;1662;49.310;8.134;2023-06-22T01:31:47;22.20;99.90
3300;DHT22;1662;49.310;8.134;2023-06-22T01:34:14;22.20;99.90
3300;DHT22;1662;49.310;8.134;2023-06-22T01:36:40;22.20;99.90
3300;DHT22;1662;49.310;8.134;2023-06-22T01:39:07;22.10;99.90
3300;DHT22;1662;49.310;8.134;2023-06-22T01:41:36;22.10;99.90
3300;DHT22;1662;49.310;8.134;2023-06-22T01:44:05;22.10;99.90
3300;DHT22;1662;49.310;8.134;2023-06-22T01:46:34;22.00;99.90
3300;DHT22;1662;49.310;8.134;2023-06-22T01:49:02;22.00;99.90
3300;DHT22;1662;49.310;8.134;2023-06-22T01:51:28;22.00;99.90
3300;DHT22;1662;49.310;8.134;2023-06-22T01:53:53;22.00;99.90
3300;DHT22;1662;49.310;8.134;2023-06-22T01:56:19;21.90;99.90
3300;DHT22;1662;49.310;8.134;2023-06-22T02:01:47;21.90;99.90
3300;DHT22;1662;49.310;8.134;2023-06-22T02:04:21;21.90;99.90
3300;DHT22;1662;49.310;8.134;2023-06-22T02:06:47;21.90;99.90
3300;DHT22;1662;49.310;8.134;2023-06-22T02:09:17;21.90;99.90
3300;DHT22;1662;49.310;8.134;2023-06-22T02:11:46;21.90;99.90
3300;DHT22;1662;49.310;8.134;2023-06-22T02:14:13;21.80;99.90
3300;DHT22;1662;49.310;8.134;2023-06-22T02:16:40;21.80;99.90
3300;DHT22;1662;49.310;8.134;2023-06-22T02:19:07;21.80;99.90
3300;DHT22;1662;49.310;8.134;2023-06-22T02:21:34;21.80;99.90
3300;DHT22;1662;49.310;8.134;2023-06-22T02:23:59;21.80;99.90
3300;DHT22;1662;49.310;8.134;2023-06-22T02:26:26;21.80;99.90
3300;DHT22;1662;49.310;8.134;2023-06-22T02:28:52;21.80;99.90
3300;DHT22;1662;49.310;8.134;2023-06-22T02:31:18;21.80;99.90
3300;DHT22;1662;49.310;8.134;2023-06-22T02:33:44;21.70;99.90
3300;DHT22;1662;49.310;8.134;2023-06-22T02:36:10;21.70;99.90
3300;DHT22;1662;49.310;8.134;2023-06-22T02:38:41;21.60;99.90
3300;DHT22;1662;49.310;8.134;2023-06-22T02:41:14;21.60;99.90
3300;DHT22;1662;49.310;8.134;2023-06-22T02:43:43;21.50;99.90
3300;DHT22;1662;49.310;8.134;2023-06-22T02:46:09;21.50;99.90
3300;DHT22;1662;49.310;8.134;2023-06-22T02:48:35;21.50;99.90
3300;DHT22;1662;49.310;8.134;2023-06-22T02:51:00;21.50;99.90
3300;DHT22;1662;49.310;8.134;2023-06-22T02:53:26;21.40;99.90
3300;DHT22;1662;49.310;8.134;2023-06-22T02:55:52;21.40;99.90
3300;DHT22;1662;49.310;8.134;2023-06-22T02:58:17;21.40;99.90
3300;DHT22;1662;49.310;8.134;2023-06-22T03:00:43;21.40;99.90
3300;DHT22;1662;49.310;8.134;2023-06-22T03:03:10;21.40;99.90
3300;DHT22;1662;49.310;8.134;2023-06-22T03:05:36;21.40;99.90
3300;DHT22;1662;49.310;8.134;2023-06-22T03:08:01;21.30;99.90
3300;DHT22;1662;49.310;8.134;2023-06-22T03:10:27;21.30;99.90
3300;DHT22;1662;49.310;8.134;2023-06-22T03:12:53;21.30;99.90
3300;DHT22;1662;49.310;8.134;2023-06-22T03:15:21;21.20;99.90
3300;DHT22;1662;49.310;8.134;2023-06-22T03:17:46;21.20;99.90
3300;DHT22;1662;49.310;8.134;2023-06-22T03:20:12;21.20;99.90
3300;DHT22;1662;49.310;8.134;2023-06-22T03:22:38;21.20;99.90
3300;DHT22;1662;49.310;8.134;2023-06-22T03:25:04;21.20;99.90
3300;DHT22;1662;49.310;8.134;2023-06-22T03:27:42;21.20;99.90
3300;DHT22;1662;49.310;8.134;2023-06-22T03:30:09;21.20;99.90
3300;DHT22;1662;49.310;8.134;2023-06-22T03:32:35;21.20;99.90
3300;DHT22;1662;49.310;8.134;2023-06-22T03:35:01;21.20;99.90
3300;DHT22;1662;49.310;8.134;2023-06-22T03:37:28;21.20;99.90
3300;DHT22;1662;49.310;8.134;2023-06-22T03:39:54;21.20;99.90
3300;DHT22;1662;49.310;8.134;2023-06-22T03:42:19;21.20;99.90
3300;DHT22;1662;49.310;8.134;2023-06-22T03:44:45;21.20;99.90
3300;DHT22;1662;49.310;8.134;2023-06-22T03:47:11;21.20;99.90
3300;DHT22;1662;49.310;8.134;2023-06-22T03:49:37;21.20;99.90
3300;DHT22;1662;49.310;8.134;2023-06-22T03:52:03;21.20;99.90
3300;DHT22;1662;49.310;8.134;2023-06-22T03:54:29;21.20;99.90
3300;DHT22;1662;49.310;8.134;2023-06-22T03:56:56;21.20;99.90
3300;DHT22;1662;49.310;8.134;2023-06-22T03:59:22;21.20;99.90
3300;DHT22;1662;49.310;8.134;2023-06-22T04:01:47;21.20;99.90
3300;DHT22;1662;49.310;8.134;2023-06-22T04:04:13;21.20;99.90
3300;DHT22;1662;49.310;8.134;2023-06-22T04:06:39;21.20;99.90
3300;DHT22;1662;49.310;8.134;2023-06-22T04:09:06;21.20;99.90
3300;DHT22;1662;49.310;8.134;2023-06-22T04:11:32;21.20;99.90
3300;DHT22;1662;49.310;8.134;2023-06-22T04:13:57;21.10;99.90
3300;DHT22;1662;49.310;8.134;2023-06-22T04:16:23;21.20;99.90
3300;DHT22;1662;49.310;8.134;2023-06-22T04:18:49;21.10;99.90
3300;DHT22;1662;49.310;8.134;2023-06-22T04:21:14;21.10;99.90
3300;DHT22;1662;49.310;8.134;2023-06-22T04:23:40;21.10;99.90
3300;DHT22;1662;49.310;8.134;2023-06-22T04:26:05;21.20;99.90
3300;DHT22;1662;49.310;8.134;2023-06-22T04:28:31;21.20;99.90
3300;DHT22;1662;49.310;8.134;2023-06-22T04:31:01;21.20;99.90
3300;DHT22;1662;49.310;8.134;2023-06-22T04:33:27;21.20;99.90
3300;DHT22;1662;49.310;8.134;2023-06-22T04:35:55;21.20;99.90
3300;DHT22;1662;49.310;8.134;2023-06-22T04:38:26;21.20;99.90
3300;DHT22;1662;49.310;8.134;2023-06-22T04:40:52;21.30;99.90
3300;DHT22;1662;49.310;8.134;2023-06-22T04:43:19;21.30;99.90
3300;DHT22;1662;49.310;8.134;2023-06-22T04:45:44;21.30;99.90
3300;DHT22;1662;49.310;8.134;2023-06-22T04:48:10;21.30;99.90
3300;DHT22;1662;49.310;8.134;2023-06-22T04:50:41;21.30;99.90
3300;DHT22;1662;49.310;8.134;2023-06-22T04:53:07;21.40;99.90
3300;DHT22;1662;49.310;8.134;2023-06-22T04:55:32;21.40;99.90
3300;DHT22;1662;49.310;8.134;2023-06-22T04:57:58;21.50;99.90
3300;DHT22;1662;49.310;8.134;2023-06-22T05:00:31;21.50;99.90
3300;DHT22;1662;49.310;8.134;2023-06-22T05:02:57;21.50;99.90
3300;DHT22;1662;49.310;8.134;2023-06-22T05:05:23;21.50;99.90
3300;DHT22;1662;49.310;8.134;2023-06-22T05:07:50;21.60;99.90
3300;DHT22;1662;49.310;8.134;2023-06-22T05:10:19;21.60;99.90
3300;DHT22;1662;49.310;8.134;2023-06-22T05:12:45;21.60;99.90
3300;DHT22;1662;49.310;8.134;2023-06-22T05:15:11;21.60;99.90
3300;DHT22;1662;49.310;8.134;2023-06-22T05:17:37;21.70;99.90
3300;DHT22;1662;49.310;8.134;2023-06-22T05:20:12;21.70;99.90
3300;DHT22;1662;49.310;8.134;2023-06-22T05:22:41;21.80;99.90
3300;DHT22;1662;49.310;8.134;2023-06-22T05:25:10;21.80;99.90
3300;DHT22;1662;49.310;8.134;2023-06-22T05:27:36;21.80;99.90
3300;DHT22;1662;49.310;8.134;2023-06-22T05:30:08;21.90;99.90
3300;DHT22;1662;49.310;8.134;2023-06-22T05:32:34;22.00;99.90
3300;DHT22;1662;49.310;8.134;2023-06-22T05:34:59;22.00;99.90
3300;DHT22;1662;49.310;8.134;2023-06-22T05:37:26;22.10;99.90
3300;DHT22;1662;49.310;8.134;2023-06-22T05:39:51;22.10;99.90
3300;DHT22;1662;49.310;8.134;2023-06-22T05:42:21;22.10;99.90
3300;DHT22;1662;49.310;8.134;2023-06-22T05:44:47;22.20;99.90
3300;DHT22;1662;49.310;8.134;2023-06-22T05:47:13;22.20;99.90
3300;DHT22;1662;49.310;8.134;2023-06-22T05:49:38;22.30;99.90
3300;DHT22;1662;49.310;8.134;2023-06-22T05:52:04;22.40;99.90
3300;DHT22;1662;49.310;8.134;2023-06-22T05:54:30;22.50;99.90
3300;DHT22;1662;49.310;8.134;2023-06-22T05:56:56;22.60;99.90
3300;DHT22;1662;49.310;8.134;2023-06-22T05:59:21;22.70;99.90
3300;DHT22;1662;49.310;8.134;2023-06-22T06:01:47;22.60;99.90
3300;DHT22;1662;49.310;8.134;2023-06-22T06:04:17;22.70;99.90
3300;DHT22;1662;49.310;8.134;2023-06-22T06:06:43;22.70;99.90
3300;DHT22;1662;49.310;8.134;2023-06-22T06:09:10;22.80;99.90
3300;DHT22;1662;49.310;8.134;2023-06-22T06:11:37;22.90;99.90
3300;DHT22;1662;49.310;8.134;2023-06-22T06:14:03;22.90;99.90
3300;DHT22;1662;49.310;8.134;2023-06-22T06:16:31;22.90;99.90
3300;DHT22;1662;49.310;8.134;2023-06-22T06:18:57;23.00;99.90
3300;DHT22;1662;49.310;8.134;2023-06-22T06:21:24;23.10;99.90
3300;DHT22;1662;49.310;8.134;2023-06-22T06:23:49;23.20;99.90
3300;DHT22;1662;49.310;8.134;2023-06-22T06:26:15;23.20;99.90
3300;DHT22;1662;49.310;8.134;2023-06-22T06:28:44;23.20;99.90
3300;DHT22;1662;49.310;8.134;2023-06-22T06:31:11;23.20;99.90
3300;DHT22;1662;49.310;8.134;2023-06-22T06:33:37;23.20;99.90
3300;DHT22;1662;49.310;8.134;2023-06-22T06:36:03;23.20;99.90
3300;DHT22;1662;49.310;8.134;2023-06-22T06:38:30;23.30;99.90
3300;DHT22;1662;49.310;8.134;2023-06-22T06:40:56;23.50;99.90
3300;DHT22;1662;49.310;8.134;2023-06-22T06:43:21;23.50;99.90
3300;DHT22;1662;49.310;8.134;2023-06-22T06:45:48;23.50;99.90
3300;DHT22;1662;49.310;8.134;2023-06-22T06:48:14;23.60;99.90
3300;DHT22;1662;49.310;8.134;2023-06-22T06:50:39;23.50;99.90
3300;DHT22;1662;49.310;8.134;2023-06-22T06:53:05;23.50;99.90
3300;DHT22;1662;49.310;8.134;2023-06-22T06:55:31;23.50;99.90
3300;DHT22;1662;49.310;8.134;2023-06-22T06:58:02;23.60;99.90
3300;DHT22;1662;49.310;8.134;2023-06-22T07:00:29;23.70;99.90
3300;DHT22;1662;49.310;8.134;2023-06-22T07:02:55;23.60;99.90
3300;DHT22;1662;49.310;8.134;2023-06-22T07:05:20;23.60;99.90
3300;DHT22;1662;49.310;8.134;2023-06-22T07:07:46;23.70;99.90
3300;DHT22;1662;49.310;8.134;2023-06-22T07:10:12;23.70;99.90
3300;DHT22;1662;49.310;8.134;2023-06-22T07:12:37;23.60;99.90
3300;DHT22;1662;49.310;8.134;2023-06-22T07:15:04;23.80;99.90
3300;DHT22;1662;49.310;8.134;2023-06-22T07:17:30;23.90;99.90
3300;DHT22;1662;49.310;8.134;2023-06-22T07:19:56;23.90;99.90
3300;DHT22;1662;49.310;8.134;2023-06-22T07:22:22;24.00;99.90
3300;DHT22;1662;49.310;8.134;2023-06-22T07:24:48;24.00;99.90
3300;DHT22;1662;49.310;8.134;2023-06-22T07:27:14;24.10;99.90
3300;DHT22;1662;49.310;8.134;2023-06-22T07:29:43;24.20;99.90
3300;DHT22;1662;49.310;8.134;2023-06-22T07:32:08;24.10;99.90
3300;DHT22;1662;49.310;8.134;2023-06-22T07:34:34;24.30;99.90
3300;DHT22;1662;49.310;8.134;2023-06-22T07:37:00;24.30;99.90
3300;DHT22;1662;49.310;8.134;2023-06-22T07:39:26;24.30;99.90
3300;DHT22;1662;49.310;8.134;2023-06-22T07:41:52;24.40;99.90
3300;DHT22;1662;49.310;8.134;2023-06-22T07:44:18;24.40;99.90
3300;DHT22;1662;49.310;8.134;2023-06-22T07:46:43;24.40;99.90
3300;DHT22;1662;49.310;8.134;2023-06-22T07:49:09;24.40;99.90
3300;DHT22;1662;49.310;8.134;2023-06-22T07:51:34;24.50;99.90
3300;DHT22;1662;49.310;8.134;2023-06-22T07:54:00;24.60;99.90
3300;DHT22;1662;49.310;8.134;2023-06-22T07:56:26;24.70;99.90
3300;DHT22;1662;49.310;8.134;2023-06-22T07:58:51;24.80;99.90
3300;DHT22;1662;49.310;8.134;2023-06-22T08:01:18;24.80;99.90
3300;DHT22;1662;49.310;8.134;2023-06-22T08:03:47;24.90;99.90
3300;DHT22;1662;49.310;8.134;2023-06-22T08:06:13;25.00;99.90
3300;DHT22;1662;49.310;8.134;2023-06-22T08:08:39;25.10;99.90
3300;DHT22;1662;49.310;8.134;2023-06-22T08:11:05;25.20;99.90
3300;DHT22;1662;49.310;8.134;2023-06-22T08:13:31;25.30;99.90
3300;DHT22;1662;49.310;8.134;2023-06-22T08:15:56;25.40;99.90
3300;DHT22;1662;49.310;8.134;2023-06-22T08:18:22;25.50;99.90
3300;DHT22;1662;49.310;8.134;2023-06-22T08:20:48;25.60;99.90
3300;DHT22;1662;49.310;8.134;2023-06-22T08:23:13;25.70;99.90
3300;DHT22;1662;49.310;8.134;2023-06-22T08:25:39;25.80;99.90
3300;DHT22;1662;49.310;8.134;2023-06-22T08:28:04;25.90;99.90
3300;DHT22;1662;49.310;8.134;2023-06-22T08:30:30;25.90;99.90
3300;DHT22;1662;49.310;8.134;2023-06-22T08:32:56;26.10;99.90
3300;DHT22;1662;49.310;8.134;2023-06-22T08:35:22;26.20;99.90
3300;DHT22;1662;49.310;8.134;2023-06-22T08:37:48;26.20;99.90
3300;DHT22;1662;49.310;8.134;2023-06-22T08:40:21;26.30;99.90
3300;DHT22;1662;49.310;8.134;2023-06-22T08:42:47;26.30;99.90
3300;DHT22;1662;49.310;8.134;2023-06-22T08:45:14;26.20;99.90
3300;DHT22;1662;49.310;8.134;2023-06-22T08:47:40;26.30;99.90
3300;DHT22;1662;49.310;8.134;2023-06-22T08:50:10;26.40;99.90
3300;DHT22;1662;49.310;8.134;2023-06-22T08:52:36;26.40;99.90
3300;DHT22;1662;49.310;8.134;2023-06-22T08:55:02;26.30;99.90
3300;DHT22;1662;49.310;8.134;2023-06-22T08:57:28;26.30;99.90
3300;DHT22;1662;49.310;8.134;2023-06-22T08:59:54;26.30;99.90
3300;DHT22;1662;49.310;8.134;2023-06-22T09:02:24;26.40;99.90
3300;DHT22;1662;49.310;8.134;2023-06-22T09:04:49;26.50;99.90
3300;DHT22;1662;49.310;8.134;2023-06-22T09:07:21;26.60;99.90
3300;DHT22;1662;49.310;8.134;2023-06-22T09:09:49;26.70;99.90
3300;DHT22;1662;49.310;8.134;2023-06-22T09:12:14;26.90;99.90
3300;DHT22;1662;49.310;8.134;2023-06-22T09:14:40;26.90;99.90
3300;DHT22;1662;49.310;8.134;2023-06-22T09:17:06;27.00;99.90
3300;DHT22;1662;49.310;8.134;2023-06-22T09:19:31;27.20;99.90
3300;DHT22;1662;49.310;8.134;2023-06-22T09:22:00;27.30;99.90
3300;DHT22;1662;49.310;8.134;2023-06-22T09:24:25;27.30;99.90
3300;DHT22;1662;49.310;8.134;2023-06-22T09:26:51;27.40;99.90
3300;DHT22;1662;49.310;8.134;2023-06-22T09:29:16;27.50;99.90
3300;DHT22;1662;49.310;8.134;2023-06-22T09:31:42;27.70;99.90
3300;DHT22;1662;49.310;8.134;2023-06-22T09:34:10;27.80;99.90
3300;DHT22;1662;49.310;8.134;2023-06-22T09:36:36;27.80;99.90
3300;DHT22;1662;49.310;8.134;2023-06-22T09:39:02;27.90;99.90
3300;DHT22;1662;49.310;8.134;2023-06-22T09:41:31;27.80;99.90
3300;DHT22;1662;49.310;8.134;2023-06-22T09:43:57;27.90;99.90
3300;DHT22;1662;49.310;8.134;2023-06-22T09:46:22;27.80;99.90
3300;DHT22;1662;49.310;8.134;2023-06-22T09:48:50;28.00;99.90
3300;DHT22;1662;49.310;8.134;2023-06-22T09:51:16;28.20;99.90
3300;DHT22;1662;49.310;8.134;2023-06-22T09:53:42;28.30;99.90
3300;DHT22;1662;49.310;8.134;2023-06-22T09:56:07;28.40;99.90
3300;DHT22;1662;49.310;8.134;2023-06-22T09:58:36;28.40;99.90
3300;DHT22;1662;49.310;8.134;2023-06-22T10:01:02;28.40;99.90
3300;DHT22;1662;49.310;8.134;2023-06-22T10:03:28;28.50;99.90
3300;DHT22;1662;49.310;8.134;2023-06-22T10:05:53;28.50;99.90
3300;DHT22;1662;49.310;8.134;2023-06-22T10:08:19;28.60;99.90
3300;DHT22;1662;49.310;8.134;2023-06-22T10:10:45;28.50;99.90
3300;DHT22;1662;49.310;8.134;2023-06-22T10:13:13;28.50;99.90
3300;DHT22;1662;49.310;8.134;2023-06-22T10:15:40;28.70;99.90
3300;DHT22;1662;49.310;8.134;2023-06-22T10:18:06;28.70;99.90
3300;DHT22;1662;49.310;8.134;2023-06-22T10:20:31;28.80;99.90
3300;DHT22;1662;49.310;8.134;2023-06-22T10:22:57;28.90;99.90
3300;DHT22;1662;49.310;8.134;2023-06-22T10:25:22;29.00;99.90
3300;DHT22;1662;49.310;8.134;2023-06-22T10:27:48;29.10;99.90
3300;DHT22;1662;49.310;8.134;2023-06-22T10:30:14;29.20;99.90
3300;DHT22;1662;49.310;8.134;2023-06-22T10:32:42;29.30;99.90
3300;DHT22;1662;49.310;8.134;2023-06-22T10:35:09;29.40;99.90
3300;DHT22;1662;49.310;8.134;2023-06-22T10:37:36;29.60;99.90
3300;DHT22;1662;49.310;8.134;2023-06-22T10:40:02;29.60;99.90
3300;DHT22;1662;49.310;8.134;2023-06-22T10:42:31;29.70;99.90
3300;DHT22;1662;49.310;8.134;2023-06-22T10:44:56;29.80;99.90
3300;DHT22;1662;49.310;8.134;2023-06-22T10:47:22;29.90;99.90
3300;DHT22;1662;49.310;8.134;2023-06-22T10:49:47;29.90;99.90
3300;DHT22;1662;49.310;8.134;2023-06-22T10:52:13;30.00;99.90
3300;DHT22;1662;49.310;8.134;2023-06-22T10:54:39;29.90;99.90
3300;DHT22;1662;49.310;8.134;2023-06-22T10:57:07;29.90;99.90
3300;DHT22;1662;49.310;8.134;2023-06-22T10:59:32;30.10;99.90
3300;DHT22;1662;49.310;8.134;2023-06-22T11:01:58;30.20;99.90
3300;DHT22;1662;49.310;8.134;2023-06-22T11:04:24;30.30;99.90
3300;DHT22;1662;49.310;8.134;2023-06-22T11:06:50;30.40;99.90
3300;DHT22;1662;49.310;8.134;2023-06-22T11:09:17;30.40;99.90
3300;DHT22;1662;49.310;8.134;2023-06-22T11:11:49;30.40;99.90
3300;DHT22;1662;49.310;8.134;2023-06-22T11:14:15;30.50;99.90
3300;DHT22;1662;49.310;8.134;2023-06-22T11:16:41;30.60;99.90
3300;DHT22;1662;49.310;8.134;2023-06-22T11:19:07;30.60;99.90
3300;DHT22;1662;49.310;8.134;2023-06-22T11:21:32;30.70;99.90
3300;DHT22;1662;49.310;8.134;2023-06-22T11:24:01;31.00;99.90
3300;DHT22;1662;49.310;8.134;2023-06-22T11:26:27;31.20;99.90
3300;DHT22;1662;49.310;8.134;2023-06-22T11:28:53;31.20;99.90
3300;DHT22;1662;49.310;8.134;2023-06-22T11:31:19;31.20;99.90
3300;DHT22;1662;49.310;8.134;2023-06-22T11:33:44;30.90;99.90
3300;DHT22;1662;49.310;8.134;2023-06-22T11:36:11;30.80;99.90
3300;DHT22;1662;49.310;8.134;2023-06-22T11:38:37;30.80;99.90
3300;DHT22;1662;49.310;8.134;2023-06-22T11:41:05;30.70;99.90
3300;DHT22;1662;49.310;8.134;2023-06-22T11:43:31;30.70;99.90
3300;DHT22;1662;49.310;8.134;2023-06-22T11:45:56;30.60;99.90
3300;DHT22;1662;49.310;8.134;2023-06-22T11:48:24;30.70;99.90
3300;DHT22;1662;49.310;8.134;2023-06-22T11:50:49;30.70;99.90
3300;DHT22;1662;49.310;8.134;2023-06-22T11:53:15;30.60;99.90
3300;DHT22;1662;49.310;8.134;2023-06-22T11:55:43;30.60;99.90
3300;DHT22;1662;49.310;8.134;2023-06-22T11:58:08;30.60;99.90
3300;DHT22;1662;49.310;8.134;2023-06-22T12:00:34;30.70;99.90
3300;DHT22;1662;49.310;8.134;2023-06-22T12:03:00;30.90;99.90
3300;DHT22;1662;49.310;8.134;2023-06-22T12:05:26;30.90;99.90
3300;DHT22;1662;49.310;8.134;2023-06-22T12:07:53;30.80;99.90
3300;DHT22;1662;49.310;8.134;2023-06-22T12:10:20;30.80;99.90
3300;DHT22;1662;49.310;8.134;2023-06-22T12:12:45;31.00;99.90
3300;DHT22;1662;49.310;8.134;2023-06-22T12:15:11;31.20;99.90
3300;DHT22;1662;49.310;8.134;2023-06-22T12:17:37;31.20;99.90
3300;DHT22;1662;49.310;8.134;2023-06-22T12:20:03;31.30;99.90
3300;DHT22;1662;49.310;8.134;2023-06-22T12:22:32;31.40;99.90
3300;DHT22;1662;49.310;8.134;2023-06-22T12:24:57;31.30;99.90
3300;DHT22;1662;49.310;8.134;2023-06-22T12:27:23;31.20;99.90
3300;DHT22;1662;49.310;8.134;2023-06-22T12:29:48;31.10;99.90
3300;DHT22;1662;49.310;8.134;2023-06-22T12:32:14;31.20;99.90
3300;DHT22;1662;49.310;8.134;2023-06-22T12:34:42;31.20;99.90
3300;DHT22;1662;49.310;8.134;2023-06-22T12:37:07;31.50;99.90
3300;DHT22;1662;49.310;8.134;2023-06-22T12:39:33;31.80;99.90
3300;DHT22;1662;49.310;8.134;2023-06-22T12:41:59;31.90;99.90
3300;DHT22;1662;49.310;8.134;2023-06-22T12:44:24;32.20;99.90
3300;DHT22;1662;49.310;8.134;2023-06-22T12:46:50;32.00;99.90
3300;DHT22;1662;49.310;8.134;2023-06-22T12:49:15;31.60;99.90
3300;DHT22;1662;49.310;8.134;2023-06-22T12:51:42;31.70;99.90
3300;DHT22;1662;49.310;8.134;2023-06-22T12:54:08;32.00;99.90
3300;DHT22;1662;49.310;8.134;2023-06-22T12:56:34;32.10;99.90
3300;DHT22;1662;49.310;8.134;2023-06-22T12:59:00;32.00;99.90
3300;DHT22;1662;49.310;8.134;2023-06-22T13:01:27;32.00;99.90
3300;DHT22;1662;49.310;8.134;2023-06-22T13:03:53;32.20;99.90
3300;DHT22;1662;49.310;8.134;2023-06-22T13:06:19;32.40;99.90
3300;DHT22;1662;49.310;8.134;2023-06-22T13:08:45;32.60;99.90
3300;DHT22;1662;49.310;8.134;2023-06-22T13:11:10;32.80;99.90
3300;DHT22;1662;49.310;8.134;2023-06-22T13:13:36;32.50;99.90
3300;DHT22;1662;49.310;8.134;2023-06-22T13:16:01;32.50;99.90
3300;DHT22;1662;49.310;8.134;2023-06-22T13:18:27;32.50;99.90
3300;DHT22;1662;49.310;8.134;2023-06-22T13:20:53;32.60;99.90
3300;DHT22;1662;49.310;8.134;2023-06-22T13:23:20;32.90;99.90
3300;DHT22;1662;49.310;8.134;2023-06-22T13:25:46;33.00;99.90
3300;DHT22;1662;49.310;8.134;2023-06-22T13:28:12;32.70;99.90
3300;DHT22;1662;49.310;8.134;2023-06-22T13:30:40;32.60;99.90
3300;DHT22;1662;49.310;8.134;2023-06-22T13:33:06;32.90;99.90
3300;DHT22;1662;49.310;8.134;2023-06-22T13:35:31;33.00;99.90
3300;DHT22;1662;49.310;8.134;2023-06-22T13:37:57;32.70;99.90
3300;DHT22;1662;49.310;8.134;2023-06-22T13:40:23;32.80;99.90
3300;DHT22;1662;49.310;8.134;2023-06-22T13:42:48;32.70;99.90
3300;DHT22;1662;49.310;8.134;2023-06-22T13:45:14;32.50;99.90
3300;DHT22;1662;49.310;8.134;2023-06-22T13:47:42;32.30;99.90
3300;DHT22;1662;49.310;8.134;2023-06-22T13:50:10;31.90;99.90
3300;DHT22;1662;49.310;8.134;2023-06-22T13:52:38;31.70;99.90
3300;DHT22;1662;49.310;8.134;2023-06-22T13:55:04;31.30;99.90
3300;DHT22;1662;49.310;8.134;2023-06-22T13:57:30;31.10;99.90
3300;DHT22;1662;49.310;8.134;2023-06-22T13:59:55;31.10;99.90
3300;DHT22;1662;49.310;8.134;2023-06-22T14:02:21;31.00;99.90
3300;DHT22;1662;49.310;8.134;2023-06-22T14:04:49;31.00;99.90
3300;DHT22;1662;49.310;8.134;2023-06-22T14:07:14;30.70;99.90
3300;DHT22;1662;49.310;8.134;2023-06-22T14:09:42;30.40;99.90
3300;DHT22;1662;49.310;8.134;2023-06-22T14:12:10;30.20;99.90
3300;DHT22;1662;49.310;8.134;2023-06-22T14:14:38;30.20;99.90
3300;DHT22;1662;49.310;8.134;2023-06-22T14:17:04;30.30;99.90
3300;DHT22;1662;49.310;8.134;2023-06-22T14:19:30;30.40;99.90
3300;DHT22;1662;49.310;8.134;2023-06-22T14:21:56;30.20;99.90
3300;DHT22;1662;49.310;8.134;2023-06-22T14:24:22;30.00;99.90
3300;DHT22;1662;49.310;8.134;2023-06-22T14:26:48;29.80;99.90
3300;DHT22;1662;49.310;8.134;2023-06-22T14:29:14;29.70;99.90
3300;DHT22;1662;49.310;8.134;2023-06-22T14:31:40;29.40;99.90
3300;DHT22;1662;49.310;8.134;2023-06-22T14:34:06;29.40;99.90
3300;DHT22;1662;49.310;8.134;2023-06-22T14:36:34;29.40;99.90
3300;DHT22;1662;49.310;8.134;2023-06-22T14:38:59;29.40;99.90
3300;DHT22;1662;49.310;8.134;2023-06-22T14:41:25;29.50;99.90
3300;DHT22;1662;49.310;8.134;2023-06-22T14:43:51;29.40;99.90
3300;DHT22;1662;49.310;8.134;2023-06-22T14:46:18;29.50;99.90
3300;DHT22;1662;49.310;8.134;2023-06-22T14:48:44;29.60;99.90
3300;DHT22;1662;49.310;8.134;2023-06-22T14:51:10;29.70;99.90
3300;DHT22;1662;49.310;8.134;2023-06-22T14:53:36;29.80;99.90
3300;DHT22;1662;49.310;8.134;2023-06-22T14:56:03;29.90;99.90
3300;DHT22;1662;49.310;8.134;2023-06-22T14:58:32;30.00;99.90
3300;DHT22;1662;49.310;8.134;2023-06-22T15:01:02;30.20;99.90
3300;DHT22;1662;49.310;8.134;2023-06-22T15:03:30;30.40;99.90
3300;DHT22;1662;49.310;8.134;2023-06-22T15:05:58;30.40;99.90
3300;DHT22;1662;49.310;8.134;2023-06-22T15:08:24;30.30;99.90
3300;DHT22;1662;49.310;8.134;2023-06-22T15:10:52;30.30;99.90
3300;DHT22;1662;49.310;8.134;2023-06-22T15:13:18;30.20;99.90
3300;DHT22;1662;49.310;8.134;2023-06-22T15:15:48;29.80;99.90
3300;DHT22;1662;49.310;8.134;2023-06-22T15:18:15;29.90;99.90
3300;DHT22;1662;49.310;8.134;2023-06-22T15:20:41;30.00;99.90
3300;DHT22;1662;49.310;8.134;2023-06-22T15:23:09;30.00;99.90
3300;DHT22;1662;49.310;8.134;2023-06-22T15:25:35;30.20;99.90
3300;DHT22;1662;49.310;8.134;2023-06-22T15:28:01;30.60;99.90
3300;DHT22;1662;49.310;8.134;2023-06-22T15:30:26;30.70;99.90
3300;DHT22;1662;49.310;8.134;2023-06-22T15:32:52;31.00;99.90
3300;DHT22;1662;49.310;8.134;2023-06-22T15:35:18;31.20;99.90
3300;DHT22;1662;49.310;8.134;2023-06-22T15:37:44;31.20;99.90
3300;DHT22;1662;49.310;8.134;2023-06-22T15:40:10;30.70;99.90
3300;DHT22;1662;49.310;8.134;2023-06-22T15:42:36;30.80;99.90
3300;DHT22;1662;49.310;8.134;2023-06-22T15:45:03;30.90;99.90
3300;DHT22;1662;49.310;8.134;2023-06-22T15:47:29;31.10;99.90
3300;DHT22;1662;49.310;8.134;2023-06-22T15:49:55;31.10;99.90
3300;DHT22;1662;49.310;8.134;2023-06-22T15:52:20;31.00;99.90
3300;DHT22;1662;49.310;8.134;2023-06-22T15:54:46;31.00;99.90
3300;DHT22;1662;49.310;8.134;2023-06-22T15:57:12;30.60;99.90
3300;DHT22;1662;49.310;8.134;2023-06-22T15:59:41;30.00;99.90
3300;DHT22;1662;49.310;8.134;2023-06-22T16:02:07;29.70;99.90
3300;DHT22;1662;49.310;8.134;2023-06-22T16:04:33;29.40;99.90
3300;DHT22;1662;49.310;8.134;2023-06-22T16:06:58;29.30;99.90